Time;durP1;ratioP1;P1;durP2;ratioP2;P2;SDS_P1;SDS_P2;PMS_P1;PMS_P2;Temp;Humidity;BMP_temperature;BMP_pressure;BME280_temperature;BME280_humidity;BME280_pressure;Samples;Min_cycle;Max_cycle;Signal;HPM_P1;HPM_P2
2024/04/01 00:00:06;;;;;;;14.10;3.03;;;15.40;99.90;;;;;;5034389;28;20200;-72
2024/04/01 00:02:32;;;;;;;12.63;3.50;;;15.40;99.90;;;;;;5026682;28;20243;-71
2024/04/01 00:04:58;;;;;;;8.73;2.70;;;15.30;99.90;;;;;;5036294;28;20184;-72
2024/04/01 00:07:23;;;;;;;16.05;2.50;;;15.40;99.90;;;;;;5025033;28;20247;-72
2024/04/01 00:09:49;;;;;;;14.77;3.72;;;15.40;99.90;;;;;;5031303;28;20205;-72
2024/04/01 00:12:15;;;;;;;14.10;2.85;;;15.40;99.90;;;;;;5035881;28;20291;-72
2024/04/01 00:14:40;;;;;;;15.43;3.50;;;15.40;99.90;;;;;;5034510;28;20189;-72
2024/04/01 00:17:06;;;;;;;10.48;4.10;;;15.40;99.90;;;;;;5031028;28;20220;-73
2024/04/01 00:19:32;;;;;;;11.25;2.72;;;15.40;99.90;;;;;;5031036;28;20181;-72
2024/04/01 00:21:57;;;;;;;14.88;3.03;;;15.40;99.90;;;;;;5068341;22;20287;-71
2024/04/01 00:24:23;;;;;;;6.57;2.10;;;15.40;99.90;;;;;;5074264;28;20770;-71
2024/04/01 00:26:49;;;;;;;12.52;2.80;;;15.40;99.90;;;;;;5078289;28;20285;-72
2024/04/01 00:29:14;;;;;;;11.40;2.40;;;15.40;99.90;;;;;;5083275;28;20229;-70
2024/04/01 00:31:40;;;;;;;8.90;2.53;;;15.40;99.90;;;;;;5061886;28;20203;-71
2024/04/01 00:34:06;;;;;;;15.85;3.20;;;15.40;99.90;;;;;;5076053;28;20650;-71
2024/04/01 00:36:31;;;;;;;9.20;2.60;;;15.40;99.90;;;;;;5074060;28;20579;-72
2024/04/01 00:38:57;;;;;;;11.77;2.90;;;15.40;99.90;;;;;;5056814;28;20211;-71
2024/04/01 00:41:24;;;;;;;8.30;1.90;;;15.40;99.90;;;;;;5074077;28;20203;-72
2024/04/01 00:43:49;;;;;;;11.50;2.65;;;15.50;99.90;;;;;;5074558;28;20604;-72
2024/04/01 00:46:17;;;;;;;12.68;2.80;;;15.50;99.90;;;;;;5074681;28;20238;-71
2024/04/01 00:48:43;;;;;;;9.65;2.67;;;15.50;99.90;;;;;;5078435;28;20171;-72
2024/04/01 00:51:09;;;;;;;11.25;2.80;;;15.50;99.90;;;;;;5078115;28;20199;-72
2024/04/01 00:53:35;;;;;;;19.40;3.38;;;15.50;99.90;;;;;;5073815;28;20186;-71
2024/04/01 00:56:02;;;;;;;8.70;2.28;;;15.50;99.90;;;;;;5074692;28;20179;-72
2024/04/01 00:58:28;;;;;;;8.95;2.00;;;15.40;99.90;;;;;;5073824;28;20217;-73
2024/04/01 01:00:56;;;;;;;9.93;2.22;;;15.40;99.90;;;;;;5074582;28;20260;-72
2024/04/01 01:03:22;;;;;;;10.13;2.40;;;15.40;99.90;;;;;;5074209;28;20198;-71
2024/04/01 01:05:48;;;;;;;8.18;2.20;;;15.40;99.90;;;;;;5073704;28;20207;-72
2024/04/01 01:08:14;;;;;;;11.88;4.68;;;15.40;99.90;;;;;;5080330;28;20191;-72
2024/04/01 01:10:40;;;;;;;9.60;2.15;;;15.30;99.90;;;;;;5087459;28;20193;-72
2024/04/01 01:13:07;;;;;;;10.73;2.00;;;15.30;99.90;;;;;;5082485;28;20175;-71
2024/04/01 01:15:32;;;;;;;4.35;2.00;;;15.30;99.90;;;;;;5074632;28;20183;-71
2024/04/01 01:17:58;;;;;;;10.68;2.65;;;15.30;99.90;;;;;;5073458;28;20187;-71
2024/04/01 01:20:24;;;;;;;9.50;2.58;;;15.30;99.90;;;;;;5072164;28;20266;-72
2024/04/01 01:22:50;;;;;;;10.35;1.98;;;15.30;99.90;;;;;;5067750;28;20198;-71
2024/04/01 01:25:15;;;;;;;8.35;2.33;;;15.40;99.90;;;;;;5074267;28;20179;-72
2024/04/01 01:27:41;;;;;;;8.27;2.70;;;15.40;99.90;;;;;;5055965;28;20194;-72
2024/04/01 01:30:18;;;;;;;11.52;2.72;;;15.40;99.90;;;;;;5073337;28;20194;-72
2024/04/01 01:32:52;;;;;;;9.98;2.38;;;15.40;99.90;;;;;;5055347;28;20600;-71
2024/04/01 01:35:23;;;;;;;4.40;2.00;;;15.40;99.90;;;;;;5073956;28;20320;-73
2024/04/01 01:37:50;;;;;;;8.13;2.22;;;15.40;99.90;;;;;;5074095;28;20193;-71
2024/04/01 01:40:16;;;;;;;10.13;1.98;;;15.30;99.90;;;;;;5074205;28;20232;-71
2024/04/01 01:42:42;;;;;;;6.93;2.20;;;15.20;99.90;;;;;;5055598;28;20291;-70
2024/04/01 01:45:07;;;;;;;7.82;1.70;;;15.20;99.90;;;;;;5073014;28;20350;-72
2024/04/01 01:47:34;;;;;;;10.55;2.15;;;15.10;99.90;;;;;;5071769;28;20754;-72
2024/04/01 01:50:00;;;;;;;7.50;1.77;;;15.10;99.90;;;;;;5073837;28;20268;-73
2024/04/01 01:52:26;;;;;;;11.63;1.90;;;15.10;99.90;;;;;;5079198;28;20207;-72
2024/04/01 01:54:52;;;;;;;6.18;1.67;;;15.10;99.90;;;;;;5073211;28;20185;-72
2024/04/01 01:57:18;;;;;;;7.30;2.03;;;15.00;99.90;;;;;;5055403;28;20610;-72
2024/04/01 01:59:44;;;;;;;10.88;1.42;;;14.80;99.90;;;;;;5080940;28;20167;-71
2024/04/01 02:02:10;;;;;;;3.75;1.40;;;14.80;99.90;;;;;;5078266;28;20620;-71
2024/04/01 02:04:36;;;;;;;2.83;1.10;;;14.90;99.90;;;;;;5073064;28;20552;-71
2024/04/01 02:07:04;;;;;;;5.90;1.40;;;15.00;99.90;;;;;;5073105;28;20203;-71
2024/04/01 02:09:30;;;;;;;5.85;1.20;;;15.00;99.90;;;;;;5072988;28;20261;-71
2024/04/01 02:11:55;;;;;;;8.25;2.15;;;15.00;99.90;;;;;;5055005;28;20230;-72
2024/04/01 02:14:21;;;;;;;3.78;1.25;;;15.00;99.90;;;;;;5055418;28;20186;-71
2024/04/01 02:16:46;;;;;;;5.85;1.70;;;15.00;99.90;;;;;;5075524;28;20186;-71
2024/04/01 02:19:13;;;;;;;2.83;1.52;;;15.00;99.90;;;;;;5081240;28;20194;-71
2024/04/01 02:21:39;;;;;;;6.75;1.67;;;15.10;99.90;;;;;;5072991;28;20700;-72
2024/04/01 02:24:11;;;;;;;5.85;1.70;;;15.00;99.90;;;;;;5073054;28;20190;-71
2024/04/01 02:26:38;;;;;;;11.07;2.33;;;15.10;99.90;;;;;;5071421;28;20575;-71
2024/04/01 02:29:05;;;;;;;7.18;1.75;;;15.10;99.90;;;;;;5072081;28;20184;-72
2024/04/01 02:31:30;;;;;;;6.82;2.10;;;15.00;99.90;;;;;;5065906;28;20618;-72
2024/04/01 02:33:56;;;;;;;11.23;1.67;;;15.00;99.90;;;;;;5072896;28;20183;-71
2024/04/01 02:36:21;;;;;;;7.38;2.00;;;15.00;99.90;;;;;;5072729;28;20187;-71
2024/04/01 02:38:50;;;;;;;6.20;1.75;;;14.90;99.90;;;;;;5073135;28;20224;-71
2024/04/01 02:41:15;;;;;;;6.97;1.80;;;14.90;99.90;;;;;;5073276;28;20202;-72
2024/04/01 02:43:43;;;;;;;10.30;1.85;;;14.90;99.90;;;;;;5053957;28;20183;-72
2024/04/01 02:46:08;;;;;;;6.00;1.70;;;14.80;99.90;;;;;;5079603;28;20215;-71
2024/04/01 02:48:34;;;;;;;7.03;1.88;;;14.80;99.90;;;;;;5083555;28;20198;-71
2024/04/01 02:51:00;;;;;;;5.25;1.58;;;14.90;99.90;;;;;;5078080;28;20203;-71
2024/04/01 02:53:26;;;;;;;14.40;2.30;;;14.90;99.90;;;;;;5072595;28;20241;-72
2024/04/01 02:55:51;;;;;;;7.70;1.63;;;14.90;99.90;;;;;;5073364;28;20183;-71
2024/04/01 02:58:17;;;;;;;11.27;2.08;;;14.90;99.90;;;;;;5074063;28;20206;-72
2024/04/01 03:00:45;;;;;;;7.32;1.73;;;15.00;99.90;;;;;;5072559;28;20202;-72
2024/04/01 03:03:14;;;;;;;7.82;2.05;;;15.00;99.90;;;;;;5053943;28;20175;-72
2024/04/01 03:05:40;;;;;;;5.00;1.50;;;15.00;99.90;;;;;;5070822;28;20203;-72
2024/04/01 03:08:09;;;;;;;7.22;1.67;;;14.90;99.90;;;;;;5073145;28;20264;-72
2024/04/01 03:10:35;;;;;;;8.40;1.65;;;15.00;99.90;;;;;;5079481;28;20183;-71
2024/04/01 03:13:07;;;;;;;8.77;1.95;;;14.90;99.90;;;;;;5054154;28;20186;-72
2024/04/01 03:15:34;;;;;;;9.68;1.60;;;15.00;99.90;;;;;;5072031;28;20262;-71
2024/04/01 03:18:00;;;;;;;4.97;1.50;;;14.90;99.90;;;;;;5077146;28;20179;-72
2024/04/01 03:20:26;;;;;;;4.53;1.58;;;14.90;99.90;;;;;;5071697;28;20187;-71
2024/04/01 03:22:52;;;;;;;6.80;1.73;;;14.80;99.90;;;;;;5071166;28;20363;-71
2024/04/01 03:25:18;;;;;;;8.50;1.88;;;14.80;99.90;;;;;;5053978;28;20179;-71
2024/04/01 03:27:43;;;;;;;8.10;1.95;;;14.80;99.90;;;;;;5053415;28;20214;-72
2024/04/01 03:30:10;;;;;;;11.90;2.47;;;14.80;99.90;;;;;;5071751;28;20175;-71
2024/04/01 03:32:36;;;;;;;5.45;2.20;;;14.90;99.90;;;;;;5072556;28;20207;-71
2024/04/01 03:35:04;;;;;;;7.97;2.35;;;14.90;99.90;;;;;;5074186;28;20198;-71
2024/04/01 03:37:30;;;;;;;5.38;1.77;;;14.90;99.90;;;;;;5073382;28;20214;-72
2024/04/01 03:39:56;;;;;;;3.95;1.42;;;14.90;99.90;;;;;;5071532;28;20631;-72
2024/04/01 03:42:22;;;;;;;13.85;2.40;;;14.80;99.90;;;;;;5071516;28;20214;-72
2024/04/01 03:44:49;;;;;;;10.38;2.42;;;14.80;99.90;;;;;;5071696;28;20247;-71
2024/04/01 03:47:15;;;;;;;6.65;1.80;;;14.70;99.90;;;;;;5071654;28;20234;-72
2024/04/01 03:49:40;;;;;;;9.20;1.63;;;14.60;99.90;;;;;;5053256;28;20213;-71
2024/04/01 03:52:06;;;;;;;8.05;2.15;;;14.60;99.90;;;;;;5065186;28;20198;-73
2024/04/01 03:54:34;;;;;;;9.27;2.03;;;14.70;99.90;;;;;;5054457;28;20183;-71
2024/04/01 03:57:02;;;;;;;6.25;1.73;;;14.70;99.90;;;;;;5053927;28;20320;-72
2024/04/01 03:59:28;;;;;;;6.53;1.58;;;14.70;99.90;;;;;;5072053;28;20191;-72
2024/04/01 04:01:54;;;;;;;5.70;1.90;;;14.70;99.90;;;;;;5072652;28;20223;-71
2024/04/01 04:04:19;;;;;;;7.90;1.77;;;14.70;99.90;;;;;;5066673;28;20190;-71
2024/04/01 04:06:47;;;;;;;8.45;1.95;;;14.70;99.90;;;;;;5066464;28;20285;-72
2024/04/01 04:09:16;;;;;;;11.18;1.90;;;14.70;99.90;;;;;;5070986;28;20182;-72
2024/04/01 04:11:49;;;;;;;8.18;1.83;;;14.70;99.90;;;;;;5071131;28;20209;-71
2024/04/01 04:14:16;;;;;;;4.30;1.67;;;14.60;99.90;;;;;;5071312;28;20266;-72
2024/04/01 04:16:42;;;;;;;5.45;1.75;;;14.60;99.90;;;;;;5053221;28;20282;-72
2024/04/01 04:19:08;;;;;;;11.77;2.10;;;14.60;99.90;;;;;;5071297;28;20218;-72
2024/04/01 04:21:33;;;;;;;4.70;1.85;;;14.60;99.90;;;;;;5079104;28;20230;-72
2024/04/01 04:23:59;;;;;;;6.57;1.60;;;14.60;99.90;;;;;;5070983;28;20693;-71
2024/04/01 04:26:24;;;;;;;5.70;1.60;;;14.60;99.90;;;;;;5071654;28;20203;-72
2024/04/01 04:28:50;;;;;;;5.80;1.88;;;14.60;99.90;;;;;;5080159;28;20239;-72
2024/04/01 04:31:16;;;;;;;10.52;1.65;;;14.60;99.90;;;;;;5073988;28;20230;-72
2024/04/01 04:33:42;;;;;;;4.45;1.75;;;14.60;99.90;;;;;;5074372;28;20183;-72
2024/04/01 04:36:07;;;;;;;6.03;2.00;;;14.60;99.90;;;;;;5067030;28;20186;-71
2024/04/01 04:38:33;;;;;;;9.73;2.08;;;14.60;99.90;;;;;;5074912;28;20240;-72
2024/04/01 04:40:58;;;;;;;8.48;2.22;;;14.60;99.90;;;;;;5074842;28;20238;-72
2024/04/01 04:43:24;;;;;;;4.90;1.60;;;14.60;99.90;;;;;;5054842;28;20301;-72
2024/04/01 04:45:50;;;;;;;9.60;1.70;;;14.50;99.90;;;;;;5056671;28;20240;-72
2024/04/01 04:48:15;;;;;;;7.65;1.98;;;14.40;99.90;;;;;;5073569;28;20279;-72
2024/04/01 04:50:41;;;;;;;6.95;1.48;;;14.40;99.90;;;;;;5056095;28;20247;-72
2024/04/01 04:53:07;;;;;;;3.55;1.15;;;14.40;99.90;;;;;;5056362;28;20198;-72
2024/04/01 04:55:32;;;;;;;7.80;1.42;;;14.50;99.90;;;;;;5056733;28;20657;-72
2024/04/01 04:57:58;;;;;;;4.70;1.73;;;14.40;99.90;;;;;;5074358;28;20171;-71
2024/04/01 05:00:24;;;;;;;5.05;1.45;;;14.50;99.90;;;;;;5074374;28;20183;-71
2024/04/01 05:02:52;;;;;;;4.28;1.40;;;14.50;99.90;;;;;;5077166;28;20176;-72
2024/04/01 05:05:21;;;;;;;8.27;1.30;;;14.50;99.90;;;;;;5083556;28;20182;-72
2024/04/01 05:07:49;;;;;;;10.40;1.70;;;14.50;99.90;;;;;;5077138;28;20215;-71
2024/04/01 05:10:15;;;;;;;3.67;1.33;;;14.50;99.90;;;;;;5075285;28;20559;-72
2024/04/01 05:12:42;;;;;;;4.93;1.50;;;14.50;99.90;;;;;;5085463;28;20288;-71
2024/04/01 05:15:08;;;;;;;5.45;1.63;;;14.50;99.90;;;;;;5080217;28;20171;-71
2024/04/01 05:17:38;;;;;;;7.68;1.35;;;14.50;99.90;;;;;;5074294;28;20191;-70
2024/04/01 05:20:04;;;;;;;4.40;1.40;;;14.50;99.90;;;;;;5074021;28;20183;-71
2024/04/01 05:22:30;;;;;;;5.82;1.40;;;14.50;99.90;;;;;;5074049;28;20226;-72
2024/04/01 05:24:56;;;;;;;6.03;1.90;;;14.50;99.90;;;;;;5073815;28;20179;-71
2024/04/01 05:27:22;;;;;;;4.40;1.40;;;14.50;99.90;;;;;;5055669;28;20360;-72
2024/04/01 05:30:11;;;;;;;6.03;1.65;;;14.50;99.90;;;;;;5073664;28;20202;-71
2024/04/01 05:32:38;;;;;;;5.15;1.35;;;14.50;99.90;;;;;;5081149;28;20701;-71
2024/04/01 05:35:07;;;;;;;4.88;1.40;;;14.50;99.90;;;;;;5072037;28;20199;-72
2024/04/01 05:37:33;;;;;;;3.28;1.27;;;14.40;99.90;;;;;;5072813;28;20175;-72
2024/04/01 05:39:59;;;;;;;9.10;2.03;;;14.50;99.90;;;;;;5065720;28;20179;-71
2024/04/01 05:42:25;;;;;;;3.38;1.35;;;14.50;99.90;;;;;;5055444;28;20917;-72
2024/04/01 05:44:51;;;;;;;5.82;1.45;;;14.50;99.90;;;;;;5073788;28;20183;-71
2024/04/01 05:47:16;;;;;;;8.27;1.45;;;14.60;99.90;;;;;;5074065;28;20214;-71
2024/04/01 05:49:42;;;;;;;3.17;1.13;;;14.60;99.90;;;;;;5073651;28;20187;-71
2024/04/01 05:52:08;;;;;;;6.03;1.45;;;14.60;99.90;;;;;;5073052;28;20195;-71
2024/04/01 05:54:33;;;;;;;6.43;1.23;;;14.40;99.90;;;;;;5073766;28;20250;-72
2024/04/01 05:57:00;;;;;;;4.63;1.35;;;14.50;99.90;;;;;;5055481;28;20175;-72
2024/04/01 05:59:27;;;;;;;4.95;1.40;;;14.50;99.90;;;;;;5073964;28;20723;-72
2024/04/01 06:01:54;;;;;;;8.57;1.80;;;14.40;99.90;;;;;;5073400;28;20222;-72
2024/04/01 06:04:20;;;;;;;6.00;1.40;;;14.40;99.90;;;;;;5073568;28;20221;-72
2024/04/01 06:06:46;;;;;;;3.83;1.40;;;14.40;99.90;;;;;;5073101;28;20676;-72
2024/04/01 06:09:13;;;;;;;4.45;1.17;;;14.40;99.90;;;;;;5054751;28;20179;-71
2024/04/01 06:11:39;;;;;;;5.40;1.20;;;14.50;99.90;;;;;;5074036;28;20543;-71
2024/04/01 06:14:05;;;;;;;3.00;1.30;;;14.50;99.90;;;;;;5073706;28;20199;-72
2024/04/01 06:16:30;;;;;;;3.92;1.05;;;14.50;99.90;;;;;;5072887;28;20238;-71
2024/04/01 06:18:56;;;;;;;4.43;1.30;;;14.50;99.90;;;;;;5073445;28;20186;-72
2024/04/01 06:21:22;;;;;;;6.78;1.45;;;14.50;99.90;;;;;;5078060;22;20236;-72
2024/04/01 06:23:48;;;;;;;4.88;1.13;;;14.50;99.90;;;;;;5036767;28;20187;-74
2024/04/01 06:26:13;;;;;;;2.95;1.30;;;14.50;99.90;;;;;;5041774;28;20207;-73
2024/04/01 06:28:39;;;;;;;9.93;2.00;;;14.60;99.90;;;;;;5059294;28;20180;-75
2024/04/01 06:31:05;;;;;;;4.97;1.63;;;14.60;99.90;;;;;;5045151;28;20196;-72
2024/04/01 06:33:33;;;;;;;5.45;1.50;;;14.50;99.90;;;;;;5039190;28;20190;-72
2024/04/01 06:35:59;;;;;;;6.80;2.22;;;14.60;99.90;;;;;;5043389;28;20211;-72
2024/04/01 06:38:25;;;;;;;5.57;2.25;;;14.60;99.90;;;;;;5040120;28;20549;-72
2024/04/01 06:40:50;;;;;;;8.90;2.10;;;14.60;99.90;;;;;;5042498;28;20227;-72
2024/04/01 06:43:16;;;;;;;8.48;1.90;;;14.60;99.90;;;;;;5039112;28;20208;-72
2024/04/01 06:45:54;;;;;;;6.05;2.10;;;14.60;99.90;;;;;;5030646;28;20237;-75
2024/04/01 06:48:21;;;;;;;4.65;1.80;;;14.70;99.90;;;;;;5045067;28;20180;-72
2024/04/01 06:50:46;;;;;;;10.90;2.03;;;14.70;99.90;;;;;;5051963;28;20700;-74
2024/04/01 06:53:12;;;;;;;7.03;2.03;;;14.70;99.90;;;;;;5032149;28;20196;-71
2024/04/01 06:55:38;;;;;;;6.68;2.10;;;14.70;99.90;;;;;;5040065;28;20184;-71
2024/04/01 06:58:04;;;;;;;7.78;1.73;;;14.80;99.90;;;;;;5038853;28;20671;-72
2024/04/01 07:00:31;;;;;;;4.72;2.10;;;14.70;99.90;;;;;;5034778;28;20258;-72
2024/04/01 07:02:57;;;;;;;6.57;2.13;;;14.80;99.90;;;;;;5056368;28;20246;-72
2024/04/01 07:05:22;;;;;;;5.47;2.00;;;14.90;99.90;;;;;;5052514;28;20192;-74
2024/04/01 07:07:48;;;;;;;5.53;1.95;;;14.90;99.90;;;;;;5043872;28;20203;-72
2024/04/01 07:10:14;;;;;;;8.27;2.40;;;14.90;99.90;;;;;;5049602;28;20184;-71
2024/04/01 07:12:39;;;;;;;5.78;1.98;;;15.00;99.90;;;;;;5048194;28;20619;-72
2024/04/01 07:15:08;;;;;;;4.03;1.70;;;15.00;99.90;;;;;;5040518;28;20177;-72
2024/04/01 07:17:37;;;;;;;7.05;2.03;;;15.00;99.90;;;;;;5041017;28;20190;-73
2024/04/01 07:20:04;;;;;;;5.85;2.78;;;15.00;99.90;;;;;;5045789;28;20195;-73
2024/04/01 07:22:30;;;;;;;6.60;2.10;;;15.10;99.90;;;;;;5041564;28;20342;-72
2024/04/01 07:24:56;;;;;;;5.28;1.95;;;15.10;99.90;;;;;;5034851;28;20187;-73
2024/04/01 07:27:21;;;;;;;5.95;1.95;;;15.10;99.90;;;;;;5052792;28;20689;-72
2024/04/01 07:29:47;;;;;;;5.82;2.20;;;15.10;99.90;;;;;;5051747;28;20180;-72
2024/04/01 07:32:12;;;;;;;5.30;1.80;;;15.10;99.90;;;;;;5040578;28;20284;-72
2024/04/01 07:34:38;;;;;;;6.60;1.90;;;15.10;99.90;;;;;;5041098;28;20194;-73
2024/04/01 07:37:05;;;;;;;9.35;2.25;;;15.10;99.90;;;;;;5043745;28;20246;-71
2024/04/01 07:39:31;;;;;;;6.32;2.72;;;15.10;99.90;;;;;;5054296;28;20207;-72
2024/04/01 07:41:56;;;;;;;5.72;1.65;;;15.00;99.90;;;;;;5042082;28;20639;-75
2024/04/01 07:44:22;;;;;;;9.45;2.38;;;15.10;99.90;;;;;;5051392;28;20727;-72
2024/04/01 07:46:47;;;;;;;8.45;2.10;;;15.10;99.90;;;;;;5051563;28;20292;-72
2024/04/01 07:49:13;;;;;;;5.47;2.20;;;15.10;99.90;;;;;;5051838;28;20180;-72
2024/04/01 07:51:39;;;;;;;6.97;2.75;;;15.30;99.90;;;;;;5043317;28;20276;-75
2024/04/01 07:54:04;;;;;;;8.57;2.17;;;15.40;99.90;;;;;;5031478;28;20184;-71
2024/04/01 07:56:30;;;;;;;5.47;2.38;;;15.50;99.90;;;;;;5045825;28;20211;-72
2024/04/01 07:58:56;;;;;;;8.00;2.05;;;15.60;99.90;;;;;;5052273;28;20266;-72
2024/04/01 08:01:22;;;;;;;8.80;2.22;;;15.60;99.90;;;;;;5043417;28;20251;-72
2024/04/01 08:03:48;;;;;;;7.90;2.08;;;15.60;99.90;;;;;;5046044;28;20208;-71
2024/04/01 08:06:14;;;;;;;9.48;2.50;;;15.60;99.90;;;;;;5048558;28;20254;-73
2024/04/01 08:08:39;;;;;;;4.57;1.55;;;15.60;99.90;;;;;;5040991;28;20176;-73
2024/04/01 08:11:05;;;;;;;7.00;1.85;;;15.60;99.90;;;;;;5034950;28;20539;-72
2024/04/01 08:13:31;;;;;;;7.72;1.65;;;15.80;99.90;;;;;;5049800;28;20180;-73
2024/04/01 08:16:03;;;;;;;8.80;1.88;;;16.30;99.90;;;;;;5045090;28;20175;-76
2024/04/01 08:18:29;;;;;;;5.40;1.20;;;17.10;99.90;;;;;;5050436;28;20184;-71
2024/04/01 08:20:57;;;;;;;5.07;1.60;;;17.60;99.90;;;;;;5037052;28;20191;-72
2024/04/01 08:23:23;;;;;;;3.63;1.55;;;18.20;99.90;;;;;;5049434;28;20180;-71
2024/04/01 08:25:49;;;;;;;10.77;2.40;;;18.20;99.90;;;;;;5056626;28;20183;-71
2024/04/01 08:28:15;;;;;;;7.53;3.10;;;18.00;99.90;;;;;;5052349;28;20180;-73
2024/04/01 08:30:40;;;;;;;7.60;2.92;;;17.80;99.90;;;;;;5033927;28;20731;-78
2024/04/01 08:33:06;;;;;;;7.60;2.60;;;17.60;99.90;;;;;;5045712;28;20176;-72
2024/04/01 08:35:35;;;;;;;16.50;4.28;;;17.40;99.90;;;;;;5048104;28;20187;-72
2024/04/01 08:38:03;;;;;;;9.43;3.97;;;17.10;99.90;;;;;;5044323;28;20211;-73
2024/04/01 08:40:32;;;;;;;14.50;3.20;;;16.70;99.90;;;;;;5042915;28;20685;-73
2024/04/01 08:43:05;;;;;;;13.07;3.25;;;16.50;99.90;;;;;;5042520;28;20214;-72
2024/04/01 08:45:32;;;;;;;13.30;4.25;;;16.20;99.90;;;;;;5048481;28;20179;-72
2024/04/01 08:48:12;;;;;;;10.65;3.75;;;16.10;99.90;;;;;;5047912;28;20732;-74
2024/04/01 08:50:46;;;;;;;13.38;2.78;;;16.00;99.90;;;;;;5048702;28;20184;-72
2024/04/01 08:53:15;;;;;;;7.65;2.97;;;15.80;99.90;;;;;;5057189;28;20277;-73
2024/04/01 08:55:41;;;;;;;13.98;3.10;;;15.70;99.90;;;;;;5047384;28;20673;-72
2024/04/01 08:58:07;;;;;;;10.77;2.38;;;15.60;99.90;;;;;;5053694;28;20241;-72
2024/04/01 09:00:32;;;;;;;10.45;2.28;;;15.60;99.90;;;;;;5042011;28;20710;-72
2024/04/01 09:02:59;;;;;;;9.68;2.78;;;15.50;99.90;;;;;;5049630;28;20362;-72
2024/04/01 09:05:25;;;;;;;11.32;2.50;;;15.40;99.90;;;;;;5047023;28;20175;-73
2024/04/01 09:07:50;;;;;;;8.30;2.58;;;15.40;99.90;;;;;;5050483;28;20264;-73
2024/04/01 09:10:23;;;;;;;5.60;1.92;;;15.30;99.90;;;;;;5035493;28;20212;-72
2024/04/01 09:12:53;;;;;;;4.50;1.77;;;15.20;99.90;;;;;;5042124;28;20544;-75
2024/04/01 09:15:21;;;;;;;8.55;1.58;;;15.10;99.90;;;;;;5033601;28;20191;-73
2024/04/01 09:17:46;;;;;;;5.88;1.80;;;15.00;99.90;;;;;;5040170;28;20654;-72
2024/04/01 09:20:12;;;;;;;5.57;1.88;;;14.90;99.90;;;;;;5044733;28;20476;-70
2024/04/01 09:22:39;;;;;;;5.25;1.60;;;14.90;99.90;;;;;;5042703;28;20223;-71
2024/04/01 09:25:05;;;;;;;3.08;1.30;;;14.90;99.90;;;;;;5042543;28;20211;-72
2024/04/01 09:27:31;;;;;;;3.90;1.40;;;14.90;99.90;;;;;;5045648;28;20200;-71
2024/04/01 09:29:57;;;;;;;6.03;1.50;;;14.80;99.90;;;;;;5054077;28;20203;-71
2024/04/01 09:32:23;;;;;;;4.72;1.30;;;14.80;99.90;;;;;;5050691;28;20220;-72
2024/04/01 09:34:48;;;;;;;3.83;1.33;;;14.80;99.90;;;;;;5054428;28;20208;-71
2024/04/01 09:37:14;;;;;;;3.80;1.25;;;15.00;99.90;;;;;;5053850;28;20271;-72
2024/04/01 09:39:41;;;;;;;4.53;1.23;;;15.30;99.90;;;;;;5046612;28;20185;-75
2024/04/01 09:42:09;;;;;;;2.78;1.13;;;15.40;99.90;;;;;;5049965;28;20208;-73
2024/04/01 09:44:35;;;;;;;4.30;1.10;;;15.50;99.90;;;;;;5043862;28;20217;-74
2024/04/01 09:47:02;;;;;;;3.15;1.40;;;15.60;99.90;;;;;;5050118;28;20230;-72
2024/04/01 09:49:30;;;;;;;3.03;1.58;;;15.60;99.90;;;;;;5045110;28;20198;-71
2024/04/01 09:51:56;;;;;;;5.43;1.20;;;15.60;99.90;;;;;;5045963;28;20289;-72
2024/04/01 09:54:22;;;;;;;5.85;1.00;;;15.70;99.90;;;;;;5054477;28;20223;-72
2024/04/01 09:56:59;;;;;;;6.15;1.42;;;15.70;99.90;;;;;;5051875;28;20215;-71
2024/04/01 09:59:52;;;;;;;4.78;1.40;;;15.70;99.90;;;;;;5025155;28;20200;-72
2024/04/01 10:02:21;;;;;;;2.20;0.90;;;15.50;99.90;;;;;;5032725;28;20241;-72
2024/04/01 10:05:08;;;;;;;1.58;0.90;;;15.20;99.90;;;;;;5048263;28;20184;-72
2024/04/01 10:07:58;;;;;;;4.40;1.05;;;15.00;99.90;;;;;;5052654;28;20707;-72
2024/04/01 10:10:52;;;;;;;2.55;1.02;;;15.00;99.90;;;;;;5054938;28;20548;-72
2024/04/01 10:13:32;;;;;;;2.47;0.80;;;14.80;99.90;;;;;;5037227;28;20212;-72
2024/04/01 10:16:16;;;;;;;1.17;0.80;;;14.80;99.90;;;;;;5032139;28;20329;-75
2024/04/01 10:19:05;;;;;;;3.03;0.90;;;14.80;99.90;;;;;;5035537;28;20191;-72
2024/04/01 10:22:19;;;;;;;1.85;0.60;;;14.60;99.90;;;;;;5042546;28;20247;-72
2024/04/01 10:25:16;;;;;;;0.80;0.50;;;14.60;99.90;;;;;;5038339;28;20176;-72
2024/04/01 10:27:44;;;;;;;2.42;0.88;;;14.50;99.90;;;;;;5026002;28;20635;-72
2024/04/01 10:30:10;;;;;;;0.75;0.52;;;14.40;99.90;;;;;;5042835;28;20676;-75
2024/04/01 10:32:50;;;;;;;1.85;0.60;;;14.40;99.90;;;;;;5048032;28;20290;-72
2024/04/01 10:35:51;;;;;;;0.65;0.50;;;14.40;99.90;;;;;;5041754;28;20263;-71
2024/04/01 10:38:47;;;;;;;0.50;0.40;;;14.40;99.90;;;;;;5044959;28;20181;-73
2024/04/01 10:41:31;;;;;;;0.63;0.40;;;14.40;99.90;;;;;;5052737;28;20766;-71
2024/04/01 10:44:17;;;;;;;2.15;0.50;;;14.50;99.90;;;;;;5052306;28;20184;-75
2024/04/01 10:47:09;;;;;;;1.35;0.50;;;14.60;99.90;;;;;;5051541;28;20239;-73
2024/04/01 10:50:02;;;;;;;0.85;0.60;;;14.60;99.90;;;;;;5031686;28;20493;-72
2024/04/01 10:52:40;;;;;;;1.00;0.40;;;14.70;99.90;;;;;;5033487;28;20204;-73
2024/04/01 10:55:22;;;;;;;0.40;0.40;;;14.80;99.90;;;;;;5042064;28;20183;-72
2024/04/01 10:58:35;;;;;;;0.47;0.47;;;14.80;99.90;;;;;;5052784;28;20555;-74
2024/04/01 11:01:25;;;;;;;0.57;0.43;;;14.80;99.90;;;;;;5012670;28;20224;-73
2024/04/01 11:04:14;;;;;;;0.38;0.38;;;14.80;99.90;;;;;;5024307;28;20177;-73
2024/04/01 11:07:27;;;;;;;0.50;0.50;;;14.70;99.90;;;;;;5032166;28;20774;-70
2024/04/01 11:10:23;;;;;;;0.40;0.40;;;14.90;99.90;;;;;;5037043;28;20196;-70
2024/04/01 11:13:11;;;;;;;0.40;0.40;;;15.10;99.90;;;;;;5041607;28;20201;-72
2024/04/01 11:15:39;;;;;;;0.40;0.40;;;14.90;99.90;;;;;;5043685;28;20264;-73
2024/04/01 11:18:37;;;;;;;0.28;0.28;;;14.80;99.90;;;;;;5053752;28;20258;-76
2024/04/01 11:21:11;;;;;;;0.77;0.50;;;14.80;99.90;;;;;;5008292;28;20222;-74
2024/04/01 11:24:00;;;;;;;0.32;0.32;;;14.70;99.90;;;;;;5035249;28;20184;-74
2024/04/01 11:26:57;;;;;;;0.55;0.35;;;14.60;99.90;;;;;;5028750;28;20288;-73
2024/04/01 11:30:00;;;;;;;1.25;0.30;;;14.50;99.90;;;;;;5043179;28;20173;-73
2024/04/01 11:32:31;;;;;;;0.30;0.30;;;14.40;99.90;;;;;;5031835;28;20236;-73
2024/04/01 11:35:29;;;;;;;0.50;0.40;;;14.30;99.90;;;;;;5026873;28;20275;-72
2024/04/01 11:38:12;;;;;;;0.50;0.35;;;14.30;99.90;;;;;;5038839;28;20176;-73
2024/04/01 11:40:38;;;;;;;0.63;0.30;;;14.20;99.90;;;;;;5046598;28;20183;-74
2024/04/01 11:43:09;;;;;;;0.22;0.22;;;14.30;99.90;;;;;;5036836;28;20207;-72
2024/04/01 11:45:42;;;;;;;0.30;0.30;;;14.30;99.90;;;;;;5039335;28;20564;-73
2024/04/01 11:48:09;;;;;;;0.32;0.32;;;14.40;99.90;;;;;;5047580;28;20180;-73
2024/04/01 11:50:35;;;;;;;0.30;0.30;;;14.40;99.90;;;;;;5034387;28;20219;-74
2024/04/01 11:53:03;;;;;;;1.20;0.30;;;14.50;99.90;;;;;;5041140;28;20200;-72
2024/04/01 11:55:29;;;;;;;0.35;0.35;;;14.60;99.90;;;;;;5053171;28;20186;-73
2024/04/01 11:58:05;;;;;;;0.40;0.40;;;14.60;99.90;;;;;;5043524;28;20191;-72
2024/04/01 12:00:31;;;;;;;0.30;0.30;;;14.50;99.90;;;;;;5034653;28;20187;-73
2024/04/01 12:02:58;;;;;;;0.30;0.30;;;14.50;99.90;;;;;;5045009;28;20647;-72
2024/04/01 12:05:24;;;;;;;0.43;0.30;;;14.60;99.90;;;;;;5033938;28;20187;-73
2024/04/01 12:07:50;;;;;;;0.35;0.32;;;14.60;99.90;;;;;;5042025;28;20204;-71
2024/04/01 12:10:17;;;;;;;0.40;0.40;;;14.60;99.90;;;;;;5051919;28;20665;-72
2024/04/01 12:12:46;;;;;;;0.20;0.20;;;14.60;99.90;;;;;;5040354;28;20637;-75
2024/04/01 12:15:16;;;;;;;0.30;0.30;;;14.60;99.90;;;;;;5039385;28;20255;-73
2024/04/01 12:17:42;;;;;;;0.40;0.40;;;14.60;99.90;;;;;;5041381;28;20212;-72
2024/04/01 12:20:09;;;;;;;1.00;0.63;;;14.60;99.90;;;;;;5046615;28;20176;-74
2024/04/01 12:22:35;;;;;;;1.50;0.43;;;14.60;99.90;;;;;;5046016;22;20334;-73
2024/04/01 12:25:02;;;;;;;0.28;0.28;;;14.60;99.90;;;;;;5035040;28;20181;-73
2024/04/01 12:27:34;;;;;;;0.35;0.35;;;14.50;99.90;;;;;;5040561;28;20202;-74
2024/04/01 12:30:03;;;;;;;0.30;0.30;;;14.50;99.90;;;;;;5041129;28;20187;-73
2024/04/01 12:32:39;;;;;;;0.85;0.30;;;14.50;99.90;;;;;;5041340;28;20302;-73
2024/04/01 12:35:04;;;;;;;2.13;1.27;;;14.30;99.90;;;;;;5038245;28;20169;-73
2024/04/01 12:37:30;;;;;;;0.32;0.32;;;14.30;99.90;;;;;;5042759;28;20768;-73
2024/04/01 12:39:56;;;;;;;0.30;0.28;;;14.20;99.90;;;;;;5034655;28;20323;-73
2024/04/01 12:42:23;;;;;;;0.35;0.30;;;14.20;99.90;;;;;;5044366;28;20227;-73
2024/04/01 12:44:49;;;;;;;0.50;0.30;;;14.20;99.90;;;;;;5043573;28;20183;-73
2024/04/01 12:47:17;;;;;;;0.82;0.40;;;14.30;99.90;;;;;;5048813;28;20214;-73
2024/04/01 12:49:44;;;;;;;0.50;0.40;;;14.30;99.90;;;;;;5047391;28;20188;-74
2024/04/01 12:52:13;;;;;;;0.30;0.30;;;14.30;99.90;;;;;;5035315;28;20262;-73
2024/04/01 12:54:49;;;;;;;0.40;0.40;;;14.40;99.90;;;;;;5033247;28;20553;-74